createdAt,value
2023-10-26T00:11:52.912Z,9.00
2023-10-26T00:26:55.926Z,15.70
2023-10-26T00:57:19.987Z,12.50
2023-10-26T01:27:40.690Z,13.60
2023-10-26T01:42:43.427Z,17.10
2023-10-26T01:57:45.912Z,17.20
2023-10-26T02:12:51.229Z,18.50
2023-10-26T02:27:54.294Z,19.90
2023-10-26T02:42:57.172Z,18.70
2023-10-26T02:58:00.175Z,24.00
2023-10-26T03:13:17.364Z,20.80
2023-10-26T03:28:20.236Z,23.60
2023-10-26T03:43:37.422Z,22.90
2023-10-26T03:58:40.031Z,27.00
2023-10-26T04:13:42.589Z,24.50
2023-10-26T04:28:51.952Z,30.70
2023-10-26T04:43:55.284Z,21.60
2023-10-26T04:59:13.186Z,20.20
2023-10-26T05:14:16.065Z,17.70
2023-10-26T05:29:18.858Z,23.90
2023-10-26T05:44:21.761Z,21.50
2023-10-26T05:59:24.565Z,24.40
2023-10-26T06:14:27.475Z,20.90
2023-10-26T06:29:30.271Z,19.10
2023-10-26T06:44:33.081Z,19.60
2023-10-26T06:59:36.377Z,19.50
2023-10-26T07:14:41.417Z,15.50
2023-10-26T07:29:45.091Z,13.40
2023-10-26T07:45:02.678Z,12.70
2023-10-26T08:00:19.800Z,14.30
2023-10-26T08:26:59.550Z,17.70
2023-10-26T08:57:20.065Z,24.10
2023-10-26T09:12:37.107Z,22.00
2023-10-26T09:27:41.879Z,19.30
2023-10-26T09:42:44.712Z,16.90
2023-10-26T09:58:09.531Z,17.90
2023-10-26T10:13:39.133Z,16.40
2023-10-26T10:28:56.480Z,14.70
2023-10-26T10:43:59.648Z,18.80
2023-10-26T10:59:20.808Z,21.10
2023-10-26T11:29:26.520Z,21.60
2023-10-26T11:44:30.641Z,22.70
2023-10-26T11:59:47.920Z,22.40
2023-10-26T12:14:51.013Z,24.40
2023-10-26T12:29:53.904Z,30.20
2023-10-26T12:44:56.717Z,25.10
2023-10-26T13:15:17.139Z,26.00
2023-10-26T13:30:24.116Z,25.20
2023-10-26T13:45:27.033Z,27.40
2023-10-26T14:00:30.012Z,25.90
2023-10-26T14:15:47.511Z,24.40
2023-10-26T14:30:50.074Z,24.40
2023-10-26T14:45:53.225Z,24.30
2023-10-26T15:00:57.114Z,24.40
2023-10-26T15:16:01.056Z,22.70
2023-10-26T15:31:04.522Z,18.60
2023-10-26T15:46:07.397Z,21.80
2023-10-26T16:16:29.596Z,19.20
2023-10-26T16:31:32.499Z,14.00
2023-10-26T16:46:35.287Z,16.10
2023-10-26T17:01:38.136Z,15.60
2023-10-26T17:32:12.825Z,15.40
2023-10-26T18:02:35.101Z,7.70
2023-10-26T18:17:37.663Z,8.50
2023-10-26T19:03:29.622Z,7.90
2023-10-26T19:18:32.794Z,9.70
2023-10-26T19:33:36.073Z,7.50
2023-10-26T19:48:39.477Z,9.60
2023-10-26T20:03:42.709Z,9.10
2023-10-26T20:18:48.815Z,9.60
2023-10-26T20:33:52.892Z,12.30
2023-10-26T20:48:56.344Z,10.60
2023-10-26T21:03:59.807Z,15.50
2023-10-26T21:19:02.939Z,12.60
2023-10-26T21:34:06.182Z,8.70
2023-10-26T21:49:09.618Z,7.00
2023-10-26T22:04:22.025Z,8.10
2023-10-26T22:49:48.522Z,8.60
2023-10-26T23:04:55.432Z,10.20
2023-10-26T23:20:13.035Z,10.20
2023-10-26T23:35:31.763Z,10.10
2023-10-26T23:50:34.661Z,13.70
